createdAt,value
2023-03-05T00:00:41.066Z,95189.00
2023-03-05T00:01:41.050Z,95185.00
2023-03-05T00:02:41.060Z,95189.00
2023-03-05T00:03:41.070Z,95187.00
2023-03-05T00:55:26.718Z,95164.00
2023-03-05T00:56:27.708Z,95166.00
2023-03-05T00:57:27.669Z,95164.00
2023-03-05T00:58:27.672Z,95168.00
2023-03-05T00:59:27.654Z,95168.00
2023-03-05T01:00:27.649Z,95166.00
2023-03-05T01:01:27.661Z,95168.00
2023-03-05T01:02:27.628Z,95164.00
2023-03-05T01:03:27.615Z,95162.00
2023-03-05T01:04:27.603Z,95162.00
2023-03-05T01:05:27.641Z,95160.00
2023-03-05T01:06:27.585Z,95160.00
2023-03-05T01:07:27.568Z,95162.00
2023-03-05T01:08:27.554Z,95162.00
2023-03-05T01:09:27.550Z,95162.00
2023-03-05T01:10:27.548Z,95164.00
2023-03-05T01:11:27.563Z,95162.00
2023-03-05T01:12:27.524Z,95160.00
2023-03-05T01:13:27.508Z,95160.00
2023-03-05T01:14:27.502Z,95158.00
2023-03-05T01:15:27.488Z,95156.00
2023-03-05T01:16:27.558Z,95156.00
2023-03-05T01:17:27.471Z,95156.00
2023-03-05T01:18:27.459Z,95152.00
2023-03-05T01:19:27.448Z,95152.00
2023-03-05T01:20:27.437Z,95152.00
2023-03-05T01:21:27.426Z,95152.00
2023-03-05T01:22:27.437Z,95150.00
2023-03-05T01:23:27.416Z,95150.00
2023-03-05T01:24:27.400Z,95150.00
2023-03-05T01:25:27.392Z,95148.00
2023-03-05T01:26:27.383Z,95148.00
2023-03-05T01:27:27.392Z,95148.00
2023-03-05T01:28:27.371Z,95138.00
2023-03-05T01:29:27.348Z,95138.00
2023-03-05T01:30:27.340Z,95148.00
2023-03-05T01:31:27.370Z,95146.00
2023-03-05T01:32:27.437Z,95138.00
2023-03-05T01:33:27.320Z,95146.00
2023-03-05T01:34:27.309Z,95146.00
2023-03-05T01:35:27.335Z,95138.00
2023-03-05T01:36:27.295Z,95146.00
2023-03-05T01:37:27.277Z,95136.00
2023-03-05T01:38:27.268Z,95146.00
2023-03-05T01:39:27.258Z,95138.00
2023-03-05T01:40:27.271Z,95136.00
2023-03-05T01:41:27.240Z,95134.00
2023-03-05T01:42:27.231Z,95132.00
2023-03-05T01:43:27.244Z,95136.00
2023-03-05T01:44:27.222Z,95134.00
2023-03-05T01:45:27.263Z,95136.00
2023-03-05T01:46:27.200Z,95146.00
2023-03-05T01:47:27.193Z,95138.00
2023-03-05T01:48:27.177Z,95136.00
2023-03-05T01:49:27.180Z,95136.00
2023-03-05T01:50:27.173Z,95132.00
2023-03-05T01:51:27.151Z,95128.00
2023-03-05T01:52:27.134Z,95130.00
2023-03-05T01:53:27.136Z,95126.00
2023-03-05T01:54:27.118Z,95124.00
2023-03-05T01:55:27.115Z,95122.00
2023-03-05T01:56:27.116Z,95120.00
2023-03-05T01:57:27.091Z,95122.00
2023-03-05T01:58:27.093Z,95119.00
2023-03-05T01:59:27.098Z,95119.00
2023-03-05T02:00:27.059Z,95122.00
2023-03-05T02:01:27.106Z,95124.00
2023-03-05T02:02:27.047Z,95124.00
2023-03-05T02:03:27.076Z,95124.00
2023-03-05T02:04:27.026Z,95124.00
2023-03-05T02:05:27.083Z,95124.00
2023-03-05T02:06:27.024Z,95124.00
2023-03-05T02:07:27.002Z,95124.00
2023-03-05T02:08:26.998Z,95122.00
2023-03-05T02:09:26.975Z,95120.00
2023-03-05T02:10:27.014Z,95122.00
2023-03-05T02:11:26.962Z,95122.00
2023-03-05T02:12:26.960Z,95119.00
2023-03-05T02:13:26.950Z,95120.00
2023-03-05T02:14:26.931Z,95119.00
2023-03-05T02:15:26.948Z,95119.00
2023-03-05T02:16:26.963Z,95119.00
2023-03-05T02:17:26.911Z,95119.00
2023-03-05T02:18:26.898Z,95119.00
2023-03-05T02:19:26.891Z,95119.00
2023-03-05T02:20:26.893Z,95119.00
2023-03-05T02:21:26.869Z,95119.00
2023-03-05T02:22:26.861Z,95119.00
2023-03-05T02:23:26.869Z,95120.00
2023-03-05T02:24:26.845Z,95117.00
2023-03-05T02:25:26.829Z,95117.00
2023-03-05T02:26:26.831Z,95115.00
2023-03-05T02:27:26.825Z,95117.00
2023-03-05T02:28:26.812Z,95117.00
2023-03-05T02:29:26.792Z,95115.00
2023-03-05T02:30:26.790Z,95117.00
2023-03-05T02:31:26.894Z,95113.00
2023-03-05T02:32:26.816Z,95111.00
2023-03-05T02:33:26.765Z,95111.00
2023-03-05T02:34:26.754Z,95109.00
2023-03-05T02:35:26.787Z,95109.00
2023-03-05T02:36:26.732Z,95109.00
2023-03-05T02:37:26.728Z,95109.00
2023-03-05T02:38:26.715Z,95111.00
2023-03-05T02:39:26.709Z,95109.00
2023-03-05T02:40:26.693Z,95109.00
2023-03-05T02:41:26.691Z,95105.00
2023-03-05T02:42:26.683Z,95103.00
2023-03-05T02:43:26.665Z,95101.00
2023-03-05T02:44:26.655Z,95101.00
2023-03-05T02:45:26.654Z,95101.00
2023-03-05T02:46:26.644Z,95097.00
2023-03-05T02:47:26.659Z,95097.00
2023-03-05T02:48:26.624Z,95097.00
2023-03-05T02:49:26.633Z,95089.00
2023-03-05T02:50:26.610Z,95091.00
2023-03-05T02:51:26.602Z,95091.00
2023-03-05T02:52:26.583Z,95089.00
2023-03-05T02:53:26.578Z,95087.00
2023-03-05T02:54:26.569Z,95089.00
2023-03-05T02:55:26.568Z,95087.00
2023-03-05T02:56:26.570Z,95089.00
2023-03-05T02:57:26.544Z,95083.00
2023-03-05T02:58:26.527Z,95087.00
2023-03-05T02:59:26.516Z,95087.00
2023-03-05T03:00:26.512Z,95085.00
2023-03-05T03:01:26.583Z,95083.00
2023-03-05T03:02:26.502Z,95081.00
2023-03-05T03:03:26.598Z,95083.00
2023-03-05T03:04:26.483Z,95085.00
2023-03-05T03:05:26.476Z,95079.00
2023-03-05T03:06:26.460Z,95083.00
2023-03-05T03:07:26.446Z,95081.00
2023-03-05T03:08:26.443Z,95081.00
2023-03-05T03:09:26.431Z,95079.00
2023-03-05T03:10:26.423Z,95079.00
2023-03-05T03:11:26.411Z,95077.00
2023-03-05T03:12:26.406Z,95077.00
2023-03-05T03:13:26.391Z,95079.00
2023-03-05T03:14:26.401Z,95077.00
2023-03-05T03:15:26.372Z,95077.00
2023-03-05T03:16:26.395Z,95075.00
2023-03-05T03:17:26.358Z,95075.00
2023-03-05T03:18:26.352Z,95073.00
2023-03-05T03:19:26.363Z,95073.00
2023-03-05T03:20:26.329Z,95073.00
2023-03-05T03:21:26.318Z,95071.00
2023-03-05T03:22:26.308Z,95071.00
2023-03-05T03:23:26.305Z,95071.00
2023-03-05T03:24:26.295Z,95071.00
2023-03-05T03:25:26.291Z,95068.00
2023-03-05T03:26:26.281Z,95068.00
2023-03-05T03:27:26.265Z,95062.00
2023-03-05T03:28:26.261Z,95066.00
2023-03-05T03:29:26.252Z,95062.00
2023-03-05T03:30:26.239Z,95064.00
2023-03-05T03:31:26.233Z,95062.00
2023-03-05T03:32:26.264Z,95060.00
2023-03-05T03:33:26.211Z,95058.00
2023-03-05T03:34:26.217Z,95058.00
2023-03-05T03:35:26.302Z,95056.00
2023-03-05T03:36:26.258Z,95058.00
2023-03-05T03:37:26.184Z,95056.00
2023-03-05T03:38:26.172Z,95052.00
2023-03-05T03:39:26.158Z,95054.00
2023-03-05T03:40:26.152Z,95054.00
2023-03-05T03:41:26.147Z,95052.00
2023-03-05T03:42:26.125Z,95052.00
2023-03-05T03:43:26.120Z,95050.00
2023-03-05T03:44:26.118Z,95050.00
2023-03-05T03:45:26.113Z,95054.00
2023-03-05T03:46:26.280Z,95048.00
2023-03-05T03:47:26.088Z,95048.00
2023-03-05T03:48:26.089Z,95048.00
2023-03-05T03:49:26.071Z,95048.00
2023-03-05T03:50:26.052Z,95050.00
2023-03-05T03:51:26.087Z,95048.00
2023-03-05T03:52:26.032Z,95048.00
2023-03-05T03:53:26.032Z,95048.00
2023-03-05T03:54:26.030Z,95046.00
2023-03-05T03:55:26.016Z,95048.00
2023-03-05T03:56:26.006Z,95046.00
2023-03-05T03:57:25.994Z,95044.00
2023-03-05T03:58:25.983Z,95044.00
2023-03-05T03:59:25.970Z,95042.00
2023-03-05T04:00:25.963Z,95040.00
2023-03-05T04:01:25.956Z,95036.00
2023-03-05T04:02:25.998Z,95038.00
2023-03-05T04:03:25.947Z,95038.00
2023-03-05T04:04:26.006Z,95038.00
2023-03-05T04:05:25.916Z,95036.00
2023-03-05T04:06:25.909Z,95034.00
2023-03-05T04:07:25.934Z,95034.00
2023-03-05T04:08:25.901Z,95034.00
2023-03-05T04:09:25.879Z,95034.00
2023-03-05T04:10:25.878Z,95034.00
2023-03-05T04:11:25.860Z,95036.00
2023-03-05T04:12:25.861Z,95034.00
2023-03-05T04:13:25.844Z,95032.00
2023-03-05T04:14:25.839Z,95030.00
2023-03-05T04:15:25.822Z,95030.00
2023-03-05T04:16:25.912Z,95030.00
2023-03-05T04:17:25.806Z,95032.00
2023-03-05T04:18:25.805Z,95030.00
2023-03-05T04:19:25.793Z,95030.00
2023-03-05T04:20:25.779Z,95030.00
2023-03-05T04:21:25.789Z,95026.00
2023-03-05T04:22:25.765Z,95026.00
2023-03-05T04:23:25.782Z,95024.00
2023-03-05T04:24:25.751Z,95028.00
2023-03-05T04:25:25.739Z,95024.00
2023-03-05T04:26:25.889Z,95024.00
2023-03-05T04:27:25.713Z,95026.00
2023-03-05T04:28:25.703Z,95024.00
2023-03-05T04:29:25.702Z,95024.00
2023-03-05T04:30:25.687Z,95022.00
2023-03-05T04:31:25.802Z,95021.00
2023-03-05T04:32:25.731Z,95022.00
2023-03-05T04:33:25.652Z,95022.00
2023-03-05T04:34:25.650Z,95022.00
2023-03-05T04:35:25.658Z,95022.00
2023-03-05T04:36:25.627Z,95022.00
2023-03-05T04:37:25.622Z,95021.00
2023-03-05T04:38:25.612Z,95021.00
2023-03-05T04:39:25.648Z,95021.00
2023-03-05T04:40:25.594Z,95021.00
2023-03-05T04:41:25.581Z,95019.00
2023-03-05T04:42:25.574Z,95021.00
2023-03-05T04:43:25.563Z,95021.00
2023-03-05T04:44:25.713Z,95019.00
2023-03-05T04:45:25.542Z,95019.00
2023-03-05T04:46:25.642Z,95021.00
2023-03-05T04:47:25.531Z,95021.00
2023-03-05T04:48:25.518Z,95022.00
2023-03-05T04:49:25.505Z,95022.00
2023-03-05T04:50:25.496Z,95022.00
2023-03-05T04:51:25.491Z,95022.00
2023-03-05T04:52:25.478Z,95022.00
2023-03-05T04:53:25.472Z,95022.00
2023-03-05T04:54:25.465Z,95022.00
2023-03-05T04:55:25.477Z,95021.00
2023-03-05T04:56:25.445Z,95021.00
2023-03-05T04:57:25.441Z,95019.00
2023-03-05T04:58:25.429Z,95017.00
2023-03-05T04:59:25.415Z,95019.00
2023-03-05T05:00:25.404Z,95015.00
2023-03-05T05:01:25.477Z,95015.00
2023-03-05T05:02:25.607Z,95013.00
2023-03-05T05:03:25.388Z,95011.00
2023-03-05T05:04:25.368Z,95009.00
2023-03-05T05:05:25.361Z,95007.00
2023-03-05T05:06:25.355Z,95003.00
2023-03-05T05:07:25.349Z,94999.00
2023-03-05T05:08:25.353Z,94999.00
2023-03-05T05:09:25.327Z,95003.00
2023-03-05T05:10:25.314Z,94995.00
2023-03-05T05:11:25.330Z,94999.00
2023-03-05T05:12:25.295Z,94995.00
2023-03-05T05:13:25.293Z,94997.00
2023-03-05T05:14:25.294Z,94995.00
2023-03-05T05:15:25.271Z,94995.00
2023-03-05T05:16:25.323Z,94993.00
2023-03-05T05:17:25.252Z,94993.00
2023-03-05T05:18:25.241Z,94993.00
2023-03-05T05:19:25.278Z,94993.00
2023-03-05T05:20:25.230Z,94995.00
2023-03-05T05:21:25.215Z,94995.00
2023-03-05T05:22:25.205Z,94993.00
2023-03-05T05:23:25.248Z,94993.00
2023-03-05T05:24:25.202Z,94991.00
2023-03-05T05:25:25.187Z,94989.00
2023-03-05T05:26:25.171Z,94991.00
2023-03-05T05:27:25.186Z,94989.00
2023-03-05T05:28:25.173Z,94987.00
2023-03-05T05:29:25.145Z,94987.00
2023-03-05T05:30:25.142Z,94989.00
2023-03-05T05:31:25.186Z,94985.00
2023-03-05T05:32:25.144Z,94987.00
2023-03-05T05:33:25.113Z,94985.00
2023-03-05T05:34:25.101Z,94983.00
2023-03-05T05:35:25.140Z,94985.00
2023-03-05T05:36:25.081Z,94985.00
2023-03-05T05:37:25.077Z,94983.00
2023-03-05T05:38:25.073Z,94985.00
2023-03-05T05:39:25.054Z,94981.00
2023-03-05T05:40:25.101Z,94981.00
2023-03-05T05:41:25.050Z,94981.00
2023-03-05T05:42:25.041Z,94981.00
2023-03-05T05:43:25.048Z,94981.00
2023-03-05T05:44:25.014Z,94979.00
2023-03-05T05:45:25.144Z,94979.00
2023-03-05T05:46:25.080Z,94981.00
2023-03-05T05:47:24.986Z,94981.00
2023-03-05T05:48:24.977Z,94981.00
2023-03-05T05:49:24.968Z,94983.00
2023-03-05T05:50:24.972Z,94981.00
2023-03-05T05:51:24.970Z,94983.00
2023-03-05T05:52:24.948Z,94983.00
2023-03-05T05:53:24.985Z,94983.00
2023-03-05T05:54:24.925Z,94981.00
2023-03-05T05:55:24.913Z,94985.00
2023-03-05T05:56:24.909Z,94983.00
2023-03-05T05:57:24.912Z,94985.00
2023-03-05T05:58:24.951Z,94985.00
2023-03-05T05:59:24.931Z,94985.00
2023-03-05T06:00:24.895Z,94983.00
2023-03-05T06:01:24.877Z,94983.00
2023-03-05T06:02:24.855Z,94985.00
2023-03-05T06:03:24.959Z,94985.00
2023-03-05T06:04:24.838Z,94983.00
2023-03-05T06:05:24.834Z,94983.00
2023-03-05T06:06:24.818Z,94983.00
2023-03-05T06:07:24.817Z,94987.00
2023-03-05T06:08:24.801Z,94985.00
2023-03-05T06:09:24.804Z,94987.00
2023-03-05T06:10:24.776Z,94987.00
2023-03-05T06:11:24.783Z,94987.00
2023-03-05T06:12:24.758Z,94989.00
2023-03-05T06:13:24.751Z,94989.00
2023-03-05T06:14:24.748Z,94987.00
2023-03-05T06:15:24.763Z,94989.00
2023-03-05T06:16:24.757Z,94991.00
2023-03-05T06:17:30.428Z,94991.00
2023-03-05T06:18:24.709Z,94989.00
2023-03-05T06:19:24.696Z,94991.00
2023-03-05T06:20:24.694Z,94991.00
2023-03-05T06:21:24.688Z,94989.00
2023-03-05T06:22:24.691Z,94989.00
2023-03-05T06:23:24.666Z,94991.00
2023-03-05T06:24:24.652Z,94991.00
2023-03-05T06:25:24.652Z,94987.00
2023-03-05T06:26:24.634Z,94989.00
2023-03-05T06:27:24.644Z,94987.00
2023-03-05T06:28:24.639Z,94987.00
2023-03-05T06:29:24.639Z,94987.00
2023-03-05T06:30:24.595Z,94989.00
2023-03-05T06:31:24.622Z,94991.00
2023-03-05T06:32:24.673Z,94991.00
2023-03-05T06:33:24.576Z,94989.00
2023-03-05T06:34:24.570Z,94991.00
2023-03-05T06:35:24.586Z,94987.00
2023-03-05T06:36:24.545Z,94989.00
2023-03-05T06:37:24.528Z,94985.00
2023-03-05T06:38:24.529Z,94985.00
2023-03-05T06:39:24.513Z,94985.00
2023-03-05T06:40:24.515Z,94983.00
2023-03-05T06:41:24.532Z,94983.00
2023-03-05T06:42:24.503Z,94983.00
2023-03-05T06:43:24.487Z,94987.00
2023-03-05T06:44:24.470Z,94987.00
2023-03-05T06:45:24.466Z,94987.00
2023-03-05T06:46:24.565Z,94987.00
2023-03-05T06:47:24.489Z,94987.00
2023-03-05T06:48:24.428Z,94989.00
2023-03-05T06:49:24.422Z,94981.00
2023-03-05T06:50:24.422Z,94981.00
2023-03-05T06:51:24.407Z,94985.00
2023-03-05T06:52:24.400Z,94981.00
2023-03-05T06:53:24.392Z,94981.00
2023-03-05T06:54:24.382Z,94981.00
2023-03-05T06:55:24.371Z,94981.00
2023-03-05T06:56:24.358Z,94981.00
2023-03-05T06:57:24.350Z,94983.00
2023-03-05T06:58:24.346Z,94979.00
2023-03-05T06:59:24.334Z,94981.00
2023-03-05T07:00:24.343Z,94979.00
2023-03-05T07:01:24.505Z,94979.00
2023-03-05T07:02:24.405Z,94981.00
2023-03-05T07:03:24.324Z,94981.00
2023-03-05T07:04:24.512Z,94979.00
2023-03-05T07:05:24.281Z,94979.00
2023-03-05T07:06:24.282Z,94977.00
2023-03-05T07:07:24.275Z,94975.00
2023-03-05T07:08:24.265Z,94975.00
2023-03-05T07:09:24.256Z,94975.00
2023-03-05T07:10:24.239Z,94975.00
2023-03-05T07:11:24.230Z,94975.00
2023-03-05T07:12:24.222Z,94977.00
2023-03-05T07:13:24.206Z,94977.00
2023-03-05T07:14:24.207Z,94975.00
2023-03-05T07:15:24.202Z,94977.00
2023-03-05T07:16:24.181Z,94975.00
2023-03-05T07:17:24.176Z,94977.00
2023-03-05T07:18:24.218Z,94977.00
2023-03-05T07:19:24.175Z,94975.00
2023-03-05T07:20:24.145Z,94975.00
2023-03-05T07:21:24.142Z,94974.00
2023-03-05T07:22:24.125Z,94974.00
2023-03-05T07:23:24.114Z,94974.00
2023-03-05T07:24:24.118Z,94974.00
2023-03-05T07:25:24.099Z,94975.00
2023-03-05T07:26:24.089Z,94972.00
2023-03-05T07:27:24.077Z,94974.00
2023-03-05T07:28:24.077Z,94972.00
2023-03-05T07:29:24.067Z,94970.00
2023-03-05T07:30:24.061Z,94968.00
2023-03-05T07:31:24.134Z,94966.00
2023-03-05T07:32:24.059Z,94964.00
2023-03-05T07:33:24.025Z,94962.00
2023-03-05T07:34:26.109Z,94962.00
2023-03-05T07:35:24.090Z,94962.00
2023-03-05T07:36:24.001Z,94960.00
2023-03-05T07:37:23.997Z,94960.00
2023-03-05T07:38:23.988Z,94958.00
2023-03-05T07:39:23.979Z,94956.00
2023-03-05T07:40:23.967Z,94956.00
2023-03-05T07:41:24.056Z,94956.00
2023-03-05T07:42:24.032Z,94954.00
2023-03-05T07:43:23.939Z,94958.00
2023-03-05T07:44:23.925Z,94960.00
2023-03-05T07:45:23.956Z,94958.00
2023-03-05T07:46:23.971Z,94956.00
2023-03-05T07:47:23.902Z,94954.00
2023-03-05T07:48:23.905Z,94952.00
2023-03-05T07:49:23.950Z,94954.00
2023-03-05T07:50:23.881Z,94952.00
2023-03-05T07:51:23.892Z,94948.00
2023-03-05T07:52:23.854Z,94948.00
2023-03-05T07:53:23.871Z,94946.00
2023-03-05T07:54:23.835Z,94946.00
2023-03-05T07:55:23.829Z,94944.00
2023-03-05T07:56:23.817Z,94940.00
2023-03-05T07:57:23.814Z,94938.00
2023-03-05T07:58:23.805Z,94938.00
2023-03-05T07:59:23.806Z,94940.00
2023-03-05T08:00:23.788Z,94934.00
2023-03-05T08:01:23.776Z,94934.00
2023-03-05T08:02:23.822Z,94936.00
2023-03-05T08:03:23.764Z,94928.00
2023-03-05T08:04:23.815Z,94930.00
2023-03-05T08:05:23.738Z,94928.00
2023-03-05T08:06:23.770Z,94930.00
2023-03-05T08:07:23.747Z,94928.00
2023-03-05T08:08:23.712Z,94930.00
2023-03-05T08:09:23.706Z,94927.00
2023-03-05T08:10:23.698Z,94925.00
2023-03-05T08:11:23.713Z,94927.00
2023-03-05T08:12:23.673Z,94925.00
2023-03-05T08:13:23.668Z,94927.00
2023-03-05T08:14:23.656Z,94923.00
2023-03-05T08:15:23.652Z,94925.00
2023-03-05T08:16:23.677Z,94923.00
2023-03-05T08:17:23.630Z,94921.00
2023-03-05T08:18:23.620Z,94923.00
2023-03-05T08:19:23.615Z,94923.00
2023-03-05T08:20:23.604Z,94923.00
2023-03-05T08:21:23.603Z,94923.00
2023-03-05T08:22:23.584Z,94923.00
2023-03-05T08:23:23.605Z,94923.00
2023-03-05T08:24:23.570Z,94921.00
2023-03-05T08:25:23.556Z,94925.00
2023-03-05T08:26:23.546Z,94923.00
2023-03-05T08:27:23.541Z,94923.00
2023-03-05T08:28:23.534Z,94921.00
2023-03-05T08:29:23.523Z,94921.00
2023-03-05T08:30:23.514Z,94923.00
2023-03-05T08:31:23.613Z,94927.00
2023-03-05T08:32:23.535Z,94927.00
2023-03-05T08:33:23.486Z,94925.00
2023-03-05T08:34:23.484Z,94925.00
2023-03-05T08:35:23.565Z,94923.00
2023-03-05T08:36:23.454Z,94921.00
2023-03-05T08:37:23.466Z,94923.00
2023-03-05T08:38:23.440Z,94923.00
2023-03-05T08:39:23.449Z,94921.00
2023-03-05T08:40:23.422Z,94919.00
2023-03-05T08:41:23.440Z,94919.00
2023-03-05T08:42:23.405Z,94921.00
2023-03-05T08:43:23.399Z,94917.00
2023-03-05T08:44:23.387Z,94917.00
2023-03-05T08:45:23.381Z,94915.00
2023-03-05T08:46:23.442Z,94915.00
2023-03-05T08:47:23.358Z,94913.00
2023-03-05T08:48:23.361Z,94913.00
2023-03-05T08:49:23.349Z,94911.00
2023-03-05T08:50:23.330Z,94909.00
2023-03-05T08:51:23.332Z,94909.00
2023-03-05T08:52:23.322Z,94907.00
2023-03-05T08:53:23.334Z,94907.00
2023-03-05T08:54:23.321Z,94909.00
2023-03-05T08:55:23.310Z,94909.00
2023-03-05T08:56:23.275Z,94905.00
2023-03-05T08:57:23.268Z,94909.00
2023-03-05T08:58:23.263Z,94909.00
2023-03-05T08:59:23.262Z,94905.00
2023-03-05T09:00:23.314Z,94907.00
2023-03-05T09:01:23.303Z,94907.00
2023-03-05T09:02:23.216Z,94903.00
2023-03-05T09:03:23.217Z,94901.00
2023-03-05T09:04:23.223Z,94899.00
2023-03-05T09:05:23.230Z,94895.00
2023-03-05T09:06:23.190Z,94893.00
2023-03-05T09:07:23.187Z,94891.00
2023-03-05T09:08:23.166Z,94889.00
2023-03-05T09:09:23.180Z,94889.00
2023-03-05T09:10:23.240Z,94879.00
2023-03-05T09:11:23.167Z,94875.00
2023-03-05T09:12:23.133Z,94875.00
2023-03-05T09:13:23.126Z,94872.00
2023-03-05T09:14:23.118Z,94872.00
2023-03-05T09:15:23.114Z,94870.00
2023-03-05T09:16:23.277Z,94866.00
2023-03-05T09:17:23.100Z,94866.00
2023-03-05T09:18:23.087Z,94866.00
2023-03-05T09:19:23.072Z,94862.00
2023-03-05T09:20:23.118Z,94860.00
2023-03-05T09:21:23.059Z,94860.00
2023-03-05T09:22:23.051Z,94854.00
2023-03-05T09:23:23.038Z,94854.00
2023-03-05T09:24:23.025Z,94850.00
2023-03-05T09:25:23.012Z,94846.00
2023-03-05T09:26:23.008Z,94850.00
2023-03-05T09:27:23.028Z,94850.00
2023-03-05T09:28:22.988Z,94848.00
2023-03-05T09:29:22.982Z,94846.00
2023-03-05T09:30:22.996Z,94848.00
2023-03-05T09:31:23.083Z,94848.00
2023-03-05T09:32:23.078Z,94844.00
2023-03-05T09:33:22.948Z,94844.00
2023-03-05T09:34:22.942Z,94844.00
2023-03-05T09:35:23.004Z,94842.00
2023-03-05T09:36:22.932Z,94844.00
2023-03-05T09:37:22.903Z,94842.00
2023-03-05T09:38:22.902Z,94840.00
2023-03-05T09:39:22.885Z,94838.00
2023-03-05T09:40:22.877Z,94838.00
2023-03-05T09:41:22.875Z,94838.00
2023-03-05T09:42:22.866Z,94836.00
2023-03-05T09:43:22.885Z,94836.00
2023-03-05T09:44:22.839Z,94834.00
2023-03-05T09:45:22.833Z,94834.00
2023-03-05T09:46:22.824Z,94832.00
2023-03-05T09:47:22.812Z,94830.00
2023-03-05T09:48:22.807Z,94832.00
2023-03-05T09:49:22.809Z,94830.00
2023-03-05T09:50:22.785Z,94830.00
2023-03-05T09:51:22.778Z,94828.00
2023-03-05T09:52:22.819Z,94828.00
2023-03-05T09:53:22.762Z,94828.00
2023-03-05T09:54:22.783Z,94830.00
2023-03-05T09:55:22.746Z,94828.00
2023-03-05T09:56:22.737Z,94828.00
2023-03-05T09:57:22.722Z,94828.00
2023-03-05T09:58:22.733Z,94827.00
2023-03-05T09:59:22.783Z,94827.00
2023-03-05T10:00:22.706Z,94827.00
2023-03-05T10:01:22.700Z,94821.00
2023-03-05T10:02:22.692Z,94821.00
2023-03-05T10:03:22.782Z,94815.00
2023-03-05T10:04:22.829Z,94815.00
2023-03-05T10:05:22.673Z,94813.00
2023-03-05T10:06:22.658Z,94813.00
2023-03-05T10:07:22.634Z,94809.00
2023-03-05T10:08:22.629Z,94813.00
2023-03-05T10:09:22.618Z,94811.00
2023-03-05T10:10:22.610Z,94807.00
2023-03-05T10:11:22.608Z,94807.00
2023-03-05T10:12:22.593Z,94803.00
2023-03-05T10:13:22.583Z,94801.00
2023-03-05T10:14:22.577Z,94797.00
2023-03-05T10:15:22.592Z,94793.00
2023-03-05T10:16:22.573Z,94793.00
2023-03-05T10:17:22.547Z,94789.00
2023-03-05T10:18:22.541Z,94785.00
2023-03-05T10:19:22.540Z,94785.00
2023-03-05T10:20:22.551Z,94783.00
2023-03-05T10:21:22.508Z,94779.00
2023-03-05T10:22:22.512Z,94777.00
2023-03-05T10:23:22.498Z,94775.00
2023-03-05T10:24:22.486Z,94775.00
2023-03-05T10:25:22.484Z,94768.00
2023-03-05T10:26:22.471Z,94772.00
2023-03-05T10:27:22.532Z,94770.00
2023-03-05T10:28:22.448Z,94770.00
2023-03-05T10:29:22.452Z,94768.00
2023-03-05T10:30:22.445Z,94764.00
2023-03-05T10:31:22.521Z,94764.00
2023-03-05T10:32:22.788Z,94764.00
2023-03-05T10:33:22.436Z,94760.00
2023-03-05T10:34:22.401Z,94762.00
2023-03-05T10:35:22.425Z,94760.00
2023-03-05T10:36:22.380Z,94756.00
2023-03-05T10:37:22.386Z,94754.00
2023-03-05T10:38:22.363Z,94754.00
2023-03-05T10:39:22.352Z,94750.00
2023-03-05T10:40:22.345Z,94750.00
2023-03-05T10:41:22.336Z,94748.00
2023-03-05T10:42:22.325Z,94748.00
2023-03-05T10:43:22.317Z,94746.00
2023-03-05T10:44:22.352Z,94746.00
2023-03-05T10:45:22.294Z,94742.00
2023-03-05T10:46:22.290Z,94742.00
2023-03-05T10:47:22.304Z,94738.00
2023-03-05T10:48:22.271Z,94738.00
2023-03-05T10:49:22.272Z,94734.00
2023-03-05T10:50:22.254Z,94734.00
2023-03-05T10:51:22.251Z,94730.00
2023-03-05T10:52:22.244Z,94728.00
2023-03-05T10:53:22.225Z,94725.00
2023-03-05T10:54:22.224Z,94719.00
2023-03-05T10:55:22.227Z,94719.00
2023-03-05T10:56:22.203Z,94721.00
2023-03-05T10:57:22.201Z,94719.00
2023-03-05T10:58:24.615Z,94719.00
2023-03-05T10:59:22.182Z,94719.00
2023-03-05T11:00:22.164Z,94715.00
2023-03-05T11:01:22.259Z,94711.00
2023-03-05T11:02:22.238Z,94711.00
2023-03-05T11:03:22.167Z,94711.00
2023-03-05T11:04:22.131Z,94711.00
2023-03-05T11:05:22.114Z,94705.00
2023-03-05T11:06:22.138Z,94705.00
2023-03-05T11:07:22.098Z,94703.00
2023-03-05T11:08:22.096Z,94699.00
2023-03-05T11:09:22.084Z,94697.00
2023-03-05T11:10:22.072Z,94693.00
2023-03-05T11:11:22.067Z,94691.00
2023-03-05T11:12:22.119Z,94689.00
2023-03-05T11:13:22.045Z,94689.00
2023-03-05T11:14:22.042Z,94687.00
2023-03-05T11:15:22.062Z,94685.00
2023-03-05T11:16:22.076Z,94683.00
2023-03-05T11:17:22.019Z,94678.00
2023-03-05T11:18:21.999Z,94676.00
2023-03-05T11:19:22.016Z,94676.00
2023-03-05T11:20:21.978Z,94676.00
2023-03-05T11:21:21.973Z,94674.00
2023-03-05T11:22:21.973Z,94674.00
2023-03-05T11:23:21.959Z,94668.00
2023-03-05T11:24:21.946Z,94670.00
2023-03-05T11:25:21.938Z,94664.00
2023-03-05T11:26:21.928Z,94662.00
2023-03-05T11:27:21.922Z,94662.00
2023-03-05T11:28:32.407Z,94662.00
2023-03-05T11:29:21.904Z,94656.00
2023-03-05T11:30:21.894Z,94656.00
2023-03-05T11:31:21.985Z,94656.00
2023-03-05T11:32:21.956Z,94658.00
2023-03-05T11:33:21.877Z,94652.00
2023-03-05T11:34:21.868Z,94654.00
2023-03-05T11:35:21.900Z,94652.00
2023-03-05T11:36:21.867Z,94650.00
2023-03-05T11:37:21.833Z,94650.00
2023-03-05T11:38:21.820Z,94644.00
2023-03-05T11:39:21.817Z,94640.00
2023-03-05T11:40:21.814Z,94636.00
2023-03-05T11:41:21.816Z,94640.00
2023-03-05T11:42:21.788Z,94632.00
2023-03-05T11:43:21.775Z,94623.00
2023-03-05T11:44:21.798Z,94621.00
2023-03-05T11:45:21.767Z,94617.00
2023-03-05T11:46:21.819Z,94619.00
2023-03-05T11:47:21.744Z,94615.00
2023-03-05T11:48:21.734Z,94613.00
2023-03-05T11:49:21.721Z,94613.00
2023-03-05T11:50:21.722Z,94613.00
2023-03-05T11:51:21.730Z,94611.00
2023-03-05T11:52:21.695Z,94609.00
2023-03-05T11:53:21.689Z,94603.00
2023-03-05T11:54:21.690Z,94605.00
2023-03-05T11:55:21.703Z,94607.00
2023-03-05T11:56:21.664Z,94603.00
2023-03-05T11:57:21.735Z,94603.00
2023-03-05T11:58:21.646Z,94601.00
2023-03-05T11:59:21.648Z,94599.00
2023-03-05T12:00:21.639Z,94599.00
2023-03-05T12:01:21.634Z,94595.00
2023-03-05T12:02:21.677Z,94593.00
2023-03-05T12:03:21.691Z,94589.00
2023-03-05T12:04:21.595Z,94581.00
2023-03-05T12:05:21.620Z,94581.00
2023-03-05T12:06:21.595Z,94581.00
2023-03-05T12:07:21.592Z,94578.00
2023-03-05T12:08:21.561Z,94579.00
2023-03-05T12:09:21.559Z,94574.00
2023-03-05T12:10:21.556Z,94578.00
2023-03-05T12:11:21.532Z,94579.00
2023-03-05T12:12:21.527Z,94576.00
2023-03-05T12:13:21.518Z,94572.00
2023-03-05T12:14:21.509Z,94578.00
2023-03-05T12:15:21.500Z,94576.00
2023-03-05T12:16:21.513Z,94572.00
2023-03-05T12:17:21.493Z,94568.00
2023-03-05T12:18:21.497Z,94566.00
2023-03-05T12:19:21.463Z,94564.00
2023-03-05T12:20:21.497Z,94564.00
2023-03-05T12:21:21.449Z,94560.00
2023-03-05T12:22:21.442Z,94558.00
2023-03-05T12:23:21.461Z,94562.00
2023-03-05T12:24:21.422Z,94558.00
2023-03-05T12:25:21.415Z,94556.00
2023-03-05T12:26:21.400Z,94554.00
2023-03-05T12:27:21.394Z,94554.00
2023-03-05T12:28:21.387Z,94552.00
2023-03-05T12:29:21.405Z,94550.00
2023-03-05T12:30:23.704Z,94548.00
2023-03-05T12:31:21.403Z,94548.00
2023-03-05T12:32:21.379Z,94546.00
2023-03-05T12:33:21.339Z,94546.00
2023-03-05T12:34:21.344Z,94542.00
2023-03-05T12:35:21.380Z,94540.00